createdAt,value
2022-09-05T00:04:25.415Z,149840.31
2022-09-05T00:10:09.326Z,149833.88
2022-09-05T00:15:45.739Z,149842.88
2022-09-05T00:24:19.988Z,149827.38
2022-09-05T00:27:12.342Z,149797.66
2022-09-05T00:32:44.791Z,149784.75
2022-09-05T00:38:16.297Z,149767.97
2022-09-05T00:43:42.837Z,149762.78
2022-09-05T00:49:18.270Z,149724.00
2022-09-05T00:55:00.198Z,149726.59
2022-09-05T01:00:24.347Z,149708.50
2022-09-05T01:06:06.749Z,149672.34
2022-09-05T01:11:40.983Z,149652.97
2022-09-05T01:17:20.435Z,149631.00
2022-09-05T01:23:08.489Z,149620.69
2022-09-05T01:29:16.292Z,149611.63
2022-09-05T01:34:35.605Z,149605.19
2022-09-05T01:40:17.081Z,149541.91
2022-09-05T01:45:53.684Z,149509.66
2022-09-05T01:51:29.001Z,149476.09
2022-09-05T01:57:05.181Z,149438.59
2022-09-05T02:02:50.255Z,149384.38
2022-09-05T02:08:39.648Z,149383.09
2022-09-05T02:14:13.308Z,149359.88
2022-09-05T02:19:57.097Z,149340.53
2022-09-05T02:26:01.490Z,149326.34
2022-09-05T02:31:20.264Z,149304.41
2022-09-05T02:36:53.597Z,149292.81
2022-09-05T02:45:14.208Z,149270.88
2022-09-05T02:48:17.848Z,149257.97
2022-09-05T02:57:25.902Z,149246.34
2022-09-05T02:59:49.957Z,149210.22
2022-09-05T03:05:19.991Z,149184.47
2022-09-05T03:11:12.119Z,149175.44
2022-09-05T03:17:26.600Z,149163.81
2022-09-05T03:23:33.278Z,149163.81
2022-09-05T03:29:32.506Z,149138.00
2022-09-05T03:35:36.700Z,149100.63
2022-09-05T03:41:21.740Z,149070.91
2022-09-05T03:47:10.541Z,149032.28
2022-09-05T03:57:07.878Z,149011.66
2022-09-05T03:58:59.337Z,149009.09
2022-09-05T04:08:15.723Z,149037.41
2022-09-05T04:10:27.851Z,148992.31
2022-09-05T04:16:13.456Z,148994.88
2022-09-05T04:21:44.771Z,148991.03
2022-09-05T04:27:29.533Z,149019.34
2022-09-05T04:33:01.616Z,149039.97
2022-09-05T04:38:39.081Z,149038.69
2022-09-05T04:44:06.460Z,149032.28
2022-09-05T04:49:34.436Z,149027.09
2022-09-05T04:55:02.685Z,149068.34
2022-09-05T05:06:02.647Z,149152.22
2022-09-05T05:06:36.747Z,149176.72
2022-09-05T05:17:53.918Z,149205.09
2022-09-05T05:18:49.043Z,149232.16
2022-09-05T05:23:49.548Z,149254.09
2022-09-05T05:29:20.627Z,149306.97
2022-09-05T05:34:47.974Z,149354.69
2022-09-05T05:40:21.270Z,149372.78
2022-09-05T05:45:45.640Z,149397.28
2022-09-05T05:52:01.710Z,149424.41
2022-09-05T05:57:45.519Z,149487.72
2022-09-05T06:03:42.200Z,149496.75
2022-09-05T06:14:52.606Z,149579.34
2022-09-05T06:16:06.628Z,149689.09
2022-09-05T06:22:15.769Z,149721.41
2022-09-05T06:28:05.629Z,149774.41
2022-09-05T06:33:52.702Z,149871.31
2022-09-05T06:39:24.975Z,150454.75
2022-09-05T06:45:27.867Z,151360.94
2022-09-05T06:51:15.358Z,152532.31
2022-09-05T06:56:50.935Z,152702.94
2022-09-05T07:02:25.723Z,152636.53
2022-09-05T07:08:34.728Z,153134.41
2022-09-05T07:14:05.946Z,153716.41
2022-09-05T07:19:30.758Z,153700.72
2022-09-05T07:24:56.017Z,153887.47
2022-09-05T07:30:20.310Z,154063.91
2022-09-05T07:35:45.628Z,154295.28
2022-09-05T07:41:20.744Z,154330.66
2022-09-05T07:46:47.473Z,153788.22
2022-09-05T07:56:49.330Z,153343.09
2022-09-05T07:58:03.594Z,153377.03
2022-09-05T08:03:29.433Z,152949.25
2022-09-05T08:09:21.943Z,153383.50
2022-09-05T08:14:46.495Z,152893.16
2022-09-05T08:20:23.860Z,152656.09
2022-09-05T08:25:57.978Z,152252.47
2022-09-05T08:31:25.853Z,152170.50
2022-09-05T08:36:50.494Z,152282.44
2022-09-05T08:42:37.614Z,151971.53
2022-09-05T08:48:13.127Z,152030.00
2022-09-05T08:53:55.599Z,152101.59
2022-09-05T08:59:32.762Z,151914.34
2022-09-05T09:05:14.267Z,152209.53
2022-09-05T09:10:50.662Z,152212.13
2022-09-05T09:16:30.727Z,152190.03
2022-09-05T09:39:38.745Z,152614.34
2022-09-05T09:45:49.390Z,152872.38
2022-09-05T09:51:51.964Z,152820.25
2022-09-05T09:57:46.078Z,152818.94
2022-09-05T10:10:38.353Z,152773.31
2022-09-05T10:10:45.322Z,152786.31
2022-09-05T10:15:33.577Z,152824.13
2022-09-05T10:21:26.253Z,152697.78
2022-09-05T10:27:15.258Z,152399.53
2022-09-05T10:35:11.471Z,152386.50
2022-09-05T10:38:45.647Z,152459.47
2022-09-05T10:44:12.281Z,152421.63
2022-09-05T10:49:40.206Z,152528.44
2022-09-05T10:55:19.147Z,152680.81
2022-09-05T11:02:26.177Z,152699.06
2022-09-05T11:06:58.633Z,152663.88
2022-09-05T11:12:33.138Z,152537.56
2022-09-05T11:18:02.374Z,152579.22
2022-09-05T11:23:32.740Z,152611.75
2022-09-05T11:29:05.631Z,152708.19
2022-09-05T11:40:09.611Z,152971.44
2022-09-05T11:41:16.260Z,152993.59
2022-09-05T11:46:48.114Z,152871.00
2022-09-05T11:52:56.152Z,152679.50
2022-09-05T11:58:44.531Z,152704.25
2022-09-05T12:04:41.145Z,152760.25
2022-09-05T12:10:47.674Z,152788.91
2022-09-05T12:16:26.804Z,152838.44
2022-09-05T12:22:09.011Z,152768.06
2022-09-05T12:27:46.324Z,152633.94
2022-09-05T12:36:01.854Z,152523.25
2022-09-05T12:41:33.806Z,152723.78
2022-09-05T12:45:29.320Z,152766.78
2022-09-05T12:51:04.816Z,152731.63
2022-09-05T13:01:15.450Z,152727.69
2022-09-05T13:03:07.416Z,152807.22
2022-09-05T13:08:21.500Z,153078.28
2022-09-05T13:14:56.207Z,152872.38
2022-09-05T13:19:40.827Z,152735.50
2022-09-05T13:25:11.024Z,152764.19
2022-09-05T13:38:02.866Z,153138.31
2022-09-05T13:38:08.258Z,152834.56
2022-09-05T13:42:22.388Z,153527.06
2022-09-05T13:47:59.991Z,153467.06
2022-09-05T13:53:36.872Z,153473.56
2022-09-05T13:59:06.997Z,152683.41
2022-09-05T14:05:20.059Z,152628.72
2022-09-05T14:11:09.984Z,152257.66
2022-09-05T14:16:47.911Z,152135.41
2022-09-05T14:22:35.272Z,152015.72
2022-09-05T14:28:02.677Z,151958.53
2022-09-05T14:37:53.227Z,152102.88
2022-09-05T14:39:23.547Z,153018.34
2022-09-05T14:45:08.089Z,153153.94
2022-09-05T14:50:29.635Z,153001.38
2022-09-05T14:55:36.916Z,153195.66
2022-09-05T15:02:53.941Z,152739.41
2022-09-05T15:06:32.824Z,152258.94
2022-09-05T15:12:23.938Z,151958.53
2022-09-05T15:17:07.002Z,151948.16
2022-09-05T15:22:24.594Z,151806.44
2022-09-05T15:27:32.812Z,151702.50
2022-09-05T15:32:39.552Z,151702.50
2022-09-05T15:37:45.905Z,151637.50
2022-09-05T15:42:53.141Z,151594.69
2022-09-05T15:48:26.246Z,151586.88
2022-09-05T15:53:34.655Z,151520.66
2022-09-05T15:58:53.390Z,151503.75
2022-09-05T16:07:59.856Z,151447.91
2022-09-05T16:10:49.146Z,151438.81
2022-09-05T16:16:29.943Z,151442.72
2022-09-05T16:23:25.664Z,151392.09
2022-09-05T16:26:12.889Z,151358.34
2022-09-05T16:31:37.956Z,151350.56
2022-09-05T16:37:07.142Z,151325.91
2022-09-05T16:42:20.561Z,151294.75
2022-09-05T16:47:36.572Z,151248.03
2022-09-05T16:53:15.980Z,151203.91
2022-09-05T16:58:33.042Z,151140.34
2022-09-05T17:03:52.991Z,151101.41
2022-09-05T17:09:13.020Z,151033.94
2022-09-05T17:14:22.769Z,150997.66
2022-09-05T17:19:32.428Z,150966.53
2022-09-05T17:29:19.821Z,150906.88
2022-09-05T17:36:08.536Z,150801.91
2022-09-05T17:41:46.994Z,150748.78
2022-09-05T17:47:07.632Z,150700.81
2022-09-05T17:52:24.849Z,150682.72
2022-09-05T17:57:45.540Z,150643.84
2022-09-05T18:02:58.776Z,150601.09
2022-09-05T18:08:03.429Z,150545.38
2022-09-05T18:13:32.211Z,150518.19
2022-09-05T18:19:05.069Z,150475.47
2022-09-05T18:24:17.432Z,150456.03
2022-09-05T18:29:58.929Z,150439.19
2022-09-05T18:35:26.714Z,150402.97
2022-09-05T18:41:07.386Z,150357.69
2022-09-05T18:46:22.593Z,150360.25
2022-09-05T18:51:35.271Z,150300.69
2022-09-05T18:57:11.924Z,150269.66
2022-09-05T19:02:26.912Z,150232.09
2022-09-05T19:07:49.686Z,150163.56
2022-09-05T19:13:15.055Z,150179.06
2022-09-05T19:18:28.786Z,150150.63
2022-09-05T19:23:37.722Z,150111.81
2022-09-05T19:36:49.723Z,150101.47
2022-09-05T19:36:50.377Z,150100.19
2022-09-05T19:44:54.881Z,150044.53
2022-09-05T19:47:36.962Z,150013.50
2022-09-05T19:50:36.301Z,149999.28
2022-09-05T19:55:41.114Z,149986.38
2022-09-05T20:01:00.370Z,149970.84
2022-09-05T20:06:29.369Z,149933.38
2022-09-05T20:11:46.015Z,149934.66
2022-09-05T20:16:52.540Z,149908.84
2022-09-05T20:22:05.456Z,149886.84
2022-09-05T20:27:31.266Z,149884.22
2022-09-05T20:32:40.723Z,149859.69
2022-09-05T20:43:15.640Z,149844.22
2022-09-05T20:43:37.308Z,149814.47
2022-09-05T20:54:02.279Z,149756.31
2022-09-05T20:54:31.852Z,149722.69
2022-09-05T20:59:41.829Z,149716.25
2022-09-05T21:05:20.008Z,149739.50
2022-09-05T21:10:28.577Z,149722.69
2022-09-05T21:15:53.038Z,149718.81
2022-09-05T21:21:00.885Z,149726.59
2022-09-05T21:26:08.963Z,149694.28
2022-09-05T21:31:16.991Z,149687.81
2022-09-05T21:36:23.041Z,149676.19
2022-09-05T21:41:29.165Z,149610.34
2022-09-05T21:47:41.523Z,149589.69
2022-09-05T21:52:00.936Z,149558.69
2022-09-05T21:59:25.434Z,149569.00
2022-09-05T22:02:37.671Z,149576.78
2022-09-05T22:07:42.347Z,149535.44
2022-09-05T22:12:49.462Z,149544.50
2022-09-05T22:18:16.124Z,149531.59
2022-09-05T22:23:21.072Z,149538.03
2022-09-05T22:28:33.653Z,149530.31
2022-09-05T22:33:58.690Z,149504.47
2022-09-05T22:39:03.506Z,149432.16
2022-09-05T22:44:09.417Z,149415.38
2022-09-05T22:49:13.567Z,149411.50
2022-09-05T22:54:17.862Z,149389.56
2022-09-05T22:59:25.957Z,149407.59
2022-09-05T23:04:30.566Z,149385.66
2022-09-05T23:09:35.549Z,149349.56
2022-09-05T23:14:43.005Z,149379.25
2022-09-05T23:19:47.193Z,149375.34
2022-09-05T23:24:51.496Z,149344.38
2022-09-05T23:29:57.330Z,149332.75
2022-09-05T23:35:02.119Z,149347.00
2022-09-05T23:40:07.977Z,149327.63
2022-09-05T23:45:13.605Z,149327.63
2022-09-05T23:50:18.640Z,149295.38
2022-09-05T23:55:23.863Z,149264.41
